Pagina principale
METAR-TAF:

METAR-TAF

Aeroporti :

Sion, Svizzera

latitudine: 46-13N, longitudine: 007-20E, altezza: 482 m

Osservazione

Il bollettino è stato emesso 27 minuti fa, alle 15:50 UTC
Vento 15 kt da ovest/sud-ovest
Temperature 27°C
Umidità 51%
Pressione 1018 hPa
Visibilità 10 km o più
Nubi sparse ad un'altezza di 8000 ft, Cumulonembo.
Nubi sparse ad un'altezza di 11000 ft

METAR: LSGS 181550Z 25015KT 9999 SCT080CB SCT110 27/16 Q1018

Ora: 18:17 (16:17 UTC)

Previsione

Il bollettino è stato emesso 1 ora e 52 minuti fa, alle 14:25 UTC
Previsione valida dal 18 alle 15 UTC al 18 alle 24 UTC
Vento 12 kt da ovest/sud-ovest
Visibilità 10 km o più
Poco nuvoloso ad un'altezza di 8000 ft, Cumulo congesto.
Evoluzione graduale
dal 18 alle 19 UTC al 18 alle 21 UTC
Vento 3 kt da direzioni variabili
Visibilità 10 km o più
nessuna nube inferiore a 1500 m e nessun cumulonembo

TAF: LSGS 181425Z 1815/1824 25012KT 9999 FEW080TCU BECMG 1819/1821 VRB03KT CAVOK

Osservazioni e previsioni meteorologiche di più di 4000 aeroporti (messaggi METAR e TAF).

Le stazioni disponibili sono rappresentate dai dischi gialli e rossi sulla carta.

Puntare il mouse per vedere il nome della stazione.

Clicca sopra per visualizzare le osservazioni e previsioni meteorologiche.

Per cambiare la mappa : fare clic sui pulsanti verdi con una croce nera per ingrandire, il pulsante verde con un trattino per diminuire, o sulla freccia verde per le mappe adiacenti.


METAR-TAF: